Time;durP1;ratioP1;P1;durP2;ratioP2;P2;SDS_P1;SDS_P2;PMS_P1;PMS_P2;Temp;Humidity;BMP_temperature;BMP_pressure;BME280_temperature;BME280_humidity;BME280_pressure;Samples;Min_cycle;Max_cycle;Signal;HPM_P1;HPM_P2
2023/01/04 00:01:20;;;;;;;3.17;2.87;;;;;;;8.11;70.14;101795.53;5133896;28;20265;-65
2023/01/04 00:03:46;;;;;;;3.90;2.60;;;;;;;8.04;70.09;101784.25;5133584;28;20191;-65
2023/01/04 00:06:15;;;;;;;3.70;2.87;;;;;;;8.10;69.72;101786.66;5134076;27;20295;-66
2023/01/04 00:08:41;;;;;;;2.73;2.67;;;;;;;8.09;69.97;101779.59;5133661;28;20271;-66
2023/01/04 00:11:12;;;;;;;2.40;2.27;;;;;;;8.10;69.89;101773.31;5134268;28;20546;-65
2023/01/04 00:13:38;;;;;;;2.93;2.30;;;;;;;8.10;70.13;101772.47;5134054;28;20201;-65
2023/01/04 00:16:10;;;;;;;4.37;3.00;;;;;;;8.14;69.80;101767.84;5133738;27;20200;-65
2023/01/04 00:18:36;;;;;;;2.53;2.53;;;;;;;8.12;70.56;101777.72;5133831;28;20187;-65
2023/01/04 00:21:12;;;;;;;2.40;2.40;;;;;;;8.07;70.41;101767.28;5133631;27;20288;-65
2023/01/04 00:23:40;;;;;;;3.20;3.00;;;;;;;8.13;70.29;101758.97;5137188;27;20244;-65
2023/01/04 00:26:10;;;;;;;3.67;2.43;;;;;;;8.07;70.32;101754.78;5137044;27;20219;-65
2023/01/04 00:28:37;;;;;;;2.20;2.20;;;;;;;8.08;70.28;101761.84;5118698;27;20671;-65
2023/01/04 00:31:05;;;;;;;2.47;2.20;;;;;;;8.09;71.07;101752.94;5137306;27;20194;-65
2023/01/04 00:33:32;;;;;;;2.53;2.43;;;;;;;8.17;70.04;101746.38;5118514;27;20256;-65
2023/01/04 00:36:08;;;;;;;6.30;2.83;;;;;;;8.17;70.75;101738.38;5136889;27;20188;-65
2023/01/04 00:38:34;;;;;;;3.13;3.03;;;;;;;8.16;71.01;101729.47;5137221;27;20174;-65
2023/01/04 00:41:01;;;;;;;3.10;2.90;;;;;;;8.18;71.43;101722.28;5137414;27;20180;-65
2023/01/04 00:43:28;;;;;;;5.37;2.33;;;;;;;8.17;71.36;101728.56;5136704;27;20263;-66
2023/01/04 00:45:55;;;;;;;2.60;2.40;;;;;;;8.14;72.27;101706.47;5136645;27;20185;-65
2023/01/04 00:48:22;;;;;;;5.60;2.20;;;;;;;8.16;72.73;101707.28;5136695;27;20192;-66
2023/01/04 00:50:48;;;;;;;2.93;2.60;;;;;;;8.18;72.73;101708.06;5136609;27;20526;-66
2023/01/04 00:53:16;;;;;;;3.30;2.50;;;;;;;8.18;72.85;101711.59;5136743;27;20208;-66
2023/01/04 00:55:43;;;;;;;2.23;2.23;;;;;;;8.14;74.21;101691.34;5136431;27;20245;-66
2023/01/04 00:58:09;;;;;;;4.30;2.40;;;;;;;8.05;74.61;101687.28;5136490;27;20565;-66
2023/01/04 01:00:36;;;;;;;6.23;3.30;;;;;;;8.04;74.56;101692.69;5136421;27;20611;-66
2023/01/04 01:03:04;;;;;;;2.57;2.47;;;;;;;8.03;74.82;101682.97;5136439;27;20179;-65
2023/01/04 01:05:33;;;;;;;3.13;2.10;;;;;;;8.03;75.22;101681.16;5136720;27;20188;-65
2023/01/04 01:08:23;;;;;;;2.80;1.90;;;;;;;7.99;75.56;101670.69;5136473;27;20208;-65
2023/01/04 01:10:47;;;;;;;2.43;1.80;;;;;;;7.94;76.62;101673.56;5136459;27;20194;-65
2023/01/04 01:13:14;;;;;;;3.20;3.07;;;;;;;7.89;76.97;101664.91;5136103;27;20209;-65
2023/01/04 01:15:40;;;;;;;2.70;2.63;;;;;;;7.85;77.53;101663.31;5136103;27;20215;-65
2023/01/04 01:18:07;;;;;;;2.83;2.63;;;;;;;7.85;78.02;101652.66;5136144;27;20195;-65
2023/01/04 01:20:33;;;;;;;2.47;2.27;;;;;;;7.84;77.98;101646.47;5135969;27;20195;-65
2023/01/04 01:23:00;;;;;;;2.20;2.00;;;;;;;7.83;78.51;101654.56;5136053;27;20648;-65
2023/01/04 01:25:26;;;;;;;3.43;2.20;;;;;;;7.70;79.83;101640.88;5136282;27;20185;-65
2023/01/04 01:27:52;;;;;;;3.83;2.37;;;;;;;7.76;78.87;101645.09;5135885;27;20211;-65
2023/01/04 01:30:19;;;;;;;4.53;2.30;;;;;;;7.66;79.82;101637.50;5136169;27;20191;-65
2023/01/04 01:32:45;;;;;;;11.17;2.87;;;;;;;7.61;81.08;101628.84;5134865;27;20242;-65
2023/01/04 01:35:11;;;;;;;3.33;2.77;;;;;;;7.59;81.12;101633.38;5135718;27;20278;-66
2023/01/04 01:37:38;;;;;;;7.73;2.90;;;;;;;7.65;81.07;101619.75;5136208;27;20209;-65
2023/01/04 01:40:05;;;;;;;2.63;2.53;;;;;;;7.65;81.06;101625.09;5135771;27;20187;-66
2023/01/04 01:42:31;;;;;;;2.63;2.57;;;;;;;7.66;81.82;101621.50;5135925;27;20549;-66
2023/01/04 01:45:09;;;;;;;4.20;2.70;;;;;;;7.60;81.83;101620.91;5135937;27;20603;-66
2023/01/04 01:47:43;;;;;;;2.50;2.00;;;;;;;7.58;82.40;101607.66;5136607;27;20551;-66
2023/01/04 01:50:39;;;;;;;3.13;2.67;;;;;;;7.58;81.97;101612.97;5135855;27;20267;-66
2023/01/04 01:53:08;;;;;;;2.57;2.37;;;;;;;7.61;82.75;101612.88;5133992;27;20225;-66
2023/01/04 01:55:35;;;;;;;5.70;3.03;;;;;;;7.58;82.98;101610.31;5136002;27;20642;-66
2023/01/04 01:58:05;;;;;;;3.00;2.77;;;;;;;7.59;83.09;101609.41;5135360;27;20238;-66
2023/01/04 02:00:31;;;;;;;4.37;2.43;;;;;;;7.59;83.58;101613.84;5135349;27;20188;-66
2023/01/04 02:03:06;;;;;;;10.43;2.73;;;;;;;7.59;83.23;101612.06;5116955;27;20736;-66
2023/01/04 02:05:34;;;;;;;4.23;2.50;;;;;;;7.63;83.36;101608.28;5135321;27;20180;-66
2023/01/04 02:08:02;;;;;;;4.90;1.87;;;;;;;7.63;83.79;101626.97;5135144;27;20219;-66
2023/01/04 02:10:30;;;;;;;3.30;2.40;;;;;;;7.61;84.21;101622.63;5135159;27;20188;-66
2023/01/04 02:12:57;;;;;;;3.70;2.17;;;;;;;7.58;84.94;101620.97;5135020;27;20222;-66
2023/01/04 02:15:30;;;;;;;10.30;3.13;;;;;;;7.52;85.24;101618.59;5135135;27;20267;-66
2023/01/04 02:18:09;;;;;;;3.53;3.07;;;;;;;7.56;85.09;101606.00;5135080;27;20574;-67
2023/01/04 02:20:43;;;;;;;1.87;1.77;;;;;;;7.45;86.01;101606.47;5134947;27;20194;-67
2023/01/04 02:23:43;;;;;;;11.37;2.53;;;;;;;7.41;87.10;101600.41;5134943;27;20183;-67
2023/01/04 02:26:37;;;;;;;2.83;2.63;;;;;;;7.43;87.45;101605.69;5135093;27;20280;-68
2023/01/04 02:29:41;;;;;;;4.83;2.50;;;;;;;7.39;87.42;101586.28;5135101;27;20208;-67
2023/01/04 02:32:29;;;;;;;5.97;2.83;;;;;;;7.40;87.95;101592.50;5135413;27;20663;-67
2023/01/04 02:35:18;;;;;;;5.90;2.57;;;;;;;7.38;87.72;101578.38;5135356;27;20177;-67
2023/01/04 02:37:49;;;;;;;2.60;2.60;;;;;;;7.38;88.05;101578.38;5134749;27;20217;-68
2023/01/04 02:40:42;;;;;;;2.77;2.57;;;;;;;7.37;88.17;101572.16;5134717;27;20259;-68
2023/01/04 02:46:18;;;;;;;3.07;2.80;;;;;;;7.37;88.61;101561.50;5134428;27;20215;-68
2023/01/04 02:51:36;;;;;;;3.50;2.90;;;;;;;7.36;88.62;101556.25;5134876;27;20261;-68
2023/01/04 02:54:21;;;;;;;3.90;2.83;;;;;;;7.46;88.34;101546.91;5134364;27;20240;-68
2023/01/04 02:57:06;;;;;;;3.20;2.87;;;;;;;7.46;88.28;101547.75;5135016;27;20620;-68
2023/01/04 02:59:48;;;;;;;2.60;2.40;;;;;;;7.48;88.89;101538.84;5134686;27;20180;-68
2023/01/04 03:06:14;;;;;;;3.57;2.77;;;;;;;7.54;88.50;101547.44;5134418;27;20180;-68
2023/01/04 03:08:29;;;;;;;5.10;3.13;;;;;;;7.52;88.54;101535.97;5134180;27;20208;-68
2023/01/04 03:11:05;;;;;;;3.03;2.80;;;;;;;7.53;88.64;101528.84;5134585;28;20172;-68
2023/01/04 03:13:39;;;;;;;5.03;3.20;;;;;;;7.54;88.92;101523.44;5134490;28;20242;-68
2023/01/04 03:16:15;;;;;;;3.63;3.43;;;;;;;7.56;88.87;101526.03;5134819;27;20290;-68
2023/01/04 03:18:47;;;;;;;3.27;3.10;;;;;;;7.59;89.28;101513.44;5134606;28;20175;-68
2023/01/04 03:21:16;;;;;;;4.60;3.43;;;;;;;7.60;89.47;101515.16;5134219;28;20573;-68
2023/01/04 03:35:49;;;;;;;6.23;3.80;;;;;;;7.67;89.24;101481.06;5134283;28;20191;-67
2023/01/04 03:50:13;;;;;;;3.53;3.27;;;;;;;7.91;88.56;101473.69;5133911;28;20655;-68
2023/01/04 03:52:43;;;;;;;3.63;3.40;;;;;;;7.96;88.29;101477.00;5134386;28;20184;-68
2023/01/04 03:55:11;;;;;;;2.63;2.63;;;;;;;7.97;88.48;101476.03;5134450;27;20173;-68
2023/01/04 03:57:39;;;;;;;2.40;2.40;;;;;;;7.95;88.39;101466.38;5137046;27;20282;-68
2023/01/04 04:00:11;;;;;;;2.67;2.47;;;;;;;7.97;88.82;101464.50;5138274;27;20189;-68
2023/01/04 04:02:39;;;;;;;4.63;2.90;;;;;;;7.99;88.68;101460.84;5138256;27;20191;-68
2023/01/04 04:10:36;;;;;;;3.60;2.20;;;;;;;8.02;89.65;101412.69;5137778;27;20180;-68
2023/01/04 04:13:03;;;;;;;2.70;2.20;;;;;;;8.02;89.05;101415.34;5137367;27;20295;-68
2023/01/04 04:15:29;;;;;;;3.90;2.50;;;;;;;8.04;89.03;101412.59;5137652;27;20727;-68
2023/01/04 04:17:55;;;;;;;2.87;2.67;;;;;;;8.00;89.11;101416.38;5137298;27;20280;-68
2023/01/04 04:20:22;;;;;;;2.47;2.40;;;;;;;8.01;89.29;101410.09;5137389;27;20218;-68
2023/01/04 04:22:48;;;;;;;2.00;2.00;;;;;;;8.00;89.67;101411.91;5137872;27;20167;-68
2023/01/04 04:25:15;;;;;;;3.80;2.00;;;;;;;8.06;89.63;101402.72;5137158;27;20185;-68
2023/01/04 04:27:41;;;;;;;2.67;2.43;;;;;;;8.07;89.86;101410.66;5137088;27;20308;-68
2023/01/04 04:30:08;;;;;;;3.17;3.07;;;;;;;8.07;89.38;101405.31;5137074;27;20186;-68
2023/01/04 04:32:34;;;;;;;3.40;2.00;;;;;;;8.16;89.68;101400.44;5137556;27;20267;-68
2023/01/04 04:35:00;;;;;;;1.87;1.87;;;;;;;8.17;89.67;101404.84;5137430;27;20204;-68
2023/01/04 04:37:29;;;;;;;1.90;1.90;;;;;;;8.20;89.18;101391.34;5136917;27;20682;-68
2023/01/04 04:39:56;;;;;;;2.37;2.30;;;;;;;8.20;89.73;101402.88;5136860;27;20275;-68
2023/01/04 04:42:23;;;;;;;2.00;1.80;;;;;;;8.21;89.83;101393.06;5136820;27;20191;-68
2023/01/04 04:44:49;;;;;;;2.23;1.57;;;;;;;8.29;89.80;101391.75;5137320;27;20177;-68
2023/01/04 04:47:15;;;;;;;1.63;1.63;;;;;;;8.29;89.72;101390.88;5136686;27;20211;-68
2023/01/04 04:49:42;;;;;;;2.10;1.90;;;;;;;8.29;89.74;101374.88;5136679;27;20745;-68
2023/01/04 04:52:08;;;;;;;1.50;1.50;;;;;;;8.31;89.52;101365.84;5136628;27;20193;-68
2023/01/04 04:54:34;;;;;;;1.77;1.77;;;;;;;8.37;90.35;101369.13;5136526;27;20200;-68
2023/01/04 04:57:01;;;;;;;1.77;1.67;;;;;;;8.37;89.84;101369.13;5136585;27;20219;-68
2023/01/04 04:59:27;;;;;;;1.77;1.77;;;;;;;8.43;89.53;101367.03;5137012;27;20191;-68
2023/01/04 05:01:54;;;;;;;1.87;1.87;;;;;;;8.43;90.12;101375.03;5136440;27;20190;-68
2023/01/04 05:04:20;;;;;;;1.00;1.00;;;;;;;8.54;90.00;101369.13;5136401;27;20669;-68
2023/01/04 05:06:48;;;;;;;2.00;1.90;;;;;;;8.54;89.63;101358.44;5136270;27;20242;-68
2023/01/04 05:09:15;;;;;;;1.90;1.50;;;;;;;8.60;89.41;101359.94;5136616;27;20230;-68
2023/01/04 05:14:27;;;;;;;1.67;1.57;;;;;;;8.75;89.14;101366.28;5136750;27;20196;-68
2023/01/04 05:16:53;;;;;;;1.10;1.10;;;;;;;8.85;88.41;101357.66;5136136;27;20712;-68
2023/01/04 05:19:20;;;;;;;1.03;1.03;;;;;;;8.92;88.65;101356.38;5136415;27;20188;-68
2023/01/04 05:21:46;;;;;;;1.70;1.10;;;;;;;9.01;88.01;101341.66;5136197;27;20188;-68
2023/01/04 05:24:12;;;;;;;1.30;1.30;;;;;;;9.09;87.82;101354.59;5136332;27;20184;-68
2023/01/04 05:26:39;;;;;;;3.30;1.10;;;;;;;9.06;87.83;101347.63;5135968;27;20291;-67
2023/01/04 05:29:05;;;;;;;1.10;1.10;;;;;;;9.18;87.49;101355.91;5136236;27;20181;-67
2023/01/04 05:31:32;;;;;;;1.20;1.20;;;;;;;9.14;87.61;101342.69;5136439;27;20185;-67
2023/01/04 05:33:58;;;;;;;1.10;1.10;;;;;;;9.26;87.11;101345.63;5136069;27;20193;-68
2023/01/04 05:36:24;;;;;;;2.13;1.53;;;;;;;9.25;87.31;101341.25;5136122;27;20275;-68
2023/01/04 05:38:51;;;;;;;1.10;1.10;;;;;;;9.30;86.99;101345.38;5117431;27;20191;-68
2023/01/04 05:44:13;;;;;;;1.53;1.53;;;;;;;9.40;86.20;101343.03;5045291;27;20204;-68
2023/01/04 05:46:39;;;;;;;1.10;1.10;;;;;;;9.48;86.25;101334.56;5117093;27;20216;-68
2023/01/04 05:49:05;;;;;;;1.10;1.10;;;;;;;9.43;86.36;101339.31;5135447;27;20184;-68
2023/01/04 05:51:32;;;;;;;1.03;1.03;;;;;;;9.48;85.94;101331.91;5135692;27;20189;-68
2023/01/04 05:53:58;;;;;;;1.17;1.17;;;;;;;9.49;86.16;101315.78;5135559;27;20207;-69
2023/01/04 05:56:24;;;;;;;1.20;1.20;;;;;;;9.53;85.35;101322.69;5135806;27;20235;-68
2023/01/04 05:58:51;;;;;;;1.30;1.30;;;;;;;9.58;85.38;101317.91;5135379;27;20191;-68
2023/01/04 06:01:17;;;;;;;1.00;1.00;;;;;;;9.61;85.22;101308.00;5135430;27;20195;-68
2023/01/04 06:03:44;;;;;;;1.27;1.27;;;;;;;9.59;85.49;101314.28;5135521;27;20184;-68
2023/01/04 06:06:10;;;;;;;1.00;1.00;;;;;;;9.59;85.03;101321.44;5135130;27;20213;-68
2023/01/04 06:08:36;;;;;;;1.17;1.07;;;;;;;9.63;84.96;101298.94;5135438;27;20191;-68
2023/01/04 06:11:03;;;;;;;1.00;1.00;;;;;;;9.64;84.66;101302.47;5135390;27;20187;-67
2023/01/04 06:13:29;;;;;;;1.10;1.10;;;;;;;9.66;84.67;101298.75;5135330;27;20198;-68
2023/01/04 06:15:56;;;;;;;1.20;1.20;;;;;;;9.72;85.06;101289.50;5135183;27;20184;-68
2023/01/04 06:18:22;;;;;;;1.40;1.40;;;;;;;9.71;84.54;101282.44;5134874;27;20184;-68
2023/01/04 06:20:50;;;;;;;1.10;1.10;;;;;;;9.74;84.28;101288.44;5134613;27;20196;-67
2023/01/04 06:23:16;;;;;;;1.20;1.20;;;;;;;9.75;84.47;101278.63;5133941;27;20184;-67
2023/01/04 06:25:43;;;;;;;1.50;1.50;;;;;;;9.77;84.53;101263.34;5134761;27;20220;-69
2023/01/04 06:28:09;;;;;;;1.43;1.43;;;;;;;9.84;84.24;101269.19;5134785;27;20550;-68
2023/01/04 06:30:35;;;;;;;1.57;1.57;;;;;;;9.87;84.00;101258.31;5135473;27;20574;-68
2023/01/04 06:33:02;;;;;;;1.47;1.47;;;;;;;9.94;83.81;101262.34;5135021;27;20184;-67
2023/01/04 06:35:28;;;;;;;2.00;1.90;;;;;;;9.94;83.43;101257.00;5134551;27;20291;-68
2023/01/04 06:37:54;;;;;;;0.93;0.93;;;;;;;9.97;83.60;101267.50;5134629;27;20196;-67
2023/01/04 06:40:21;;;;;;;1.60;1.60;;;;;;;9.96;83.42;101261.28;5134818;27;20187;-68
2023/01/04 06:42:47;;;;;;;1.43;1.43;;;;;;;9.95;83.78;101272.94;5134539;27;20212;-68
2023/01/04 06:45:14;;;;;;;1.57;1.47;;;;;;;9.96;83.75;101257.72;5134456;27;20181;-68
2023/01/04 06:47:41;;;;;;;1.67;1.67;;;;;;;9.92;83.93;101265.09;5134433;27;20635;-68
2023/01/04 06:50:08;;;;;;;1.60;1.50;;;;;;;9.95;84.02;101264.91;5134432;27;20252;-68
2023/01/04 06:52:35;;;;;;;1.30;1.30;;;;;;;9.99;83.99;101274.47;5134338;27;20188;-68
2023/01/04 06:55:01;;;;;;;1.40;1.40;;;;;;;10.06;83.93;101258.06;5134257;27;20291;-68
2023/01/04 06:57:28;;;;;;;1.83;1.83;;;;;;;10.09;83.95;101282.81;5134262;27;20204;-68
2023/01/04 06:59:55;;;;;;;2.70;2.70;;;;;;;10.12;83.69;101268.38;5134243;27;20730;-68
2023/01/04 07:02:21;;;;;;;1.93;1.93;;;;;;;10.12;84.21;101260.34;5134252;27;20271;-68
2023/01/04 07:04:48;;;;;;;1.47;1.47;;;;;;;10.18;84.10;101268.88;5134484;27;20255;-68
2023/01/04 07:07:14;;;;;;;1.60;1.60;;;;;;;10.18;84.02;101263.50;5134101;27;20205;-67
2023/01/04 07:09:41;;;;;;;1.70;1.70;;;;;;;10.22;84.19;101262.38;5134154;28;20646;-67
2023/01/04 07:12:07;;;;;;;1.17;1.10;;;;;;;10.16;84.15;101260.06;5134149;28;20188;-68
2023/01/04 07:14:33;;;;;;;1.30;1.30;;;;;;;10.21;83.62;101265.13;5134243;28;20215;-68
2023/01/04 07:17:00;;;;;;;1.30;1.20;;;;;;;10.21;83.34;101268.66;5134609;27;20283;-68
2023/01/04 07:19:26;;;;;;;1.50;1.50;;;;;;;10.29;83.30;101268.22;5134112;28;20180;-68
2023/01/04 07:21:53;;;;;;;1.30;1.30;;;;;;;10.30;83.15;101266.44;5134129;28;20196;-68
2023/01/04 07:24:19;;;;;;;1.53;1.20;;;;;;;10.31;82.80;101265.47;5134422;28;20673;-68
2023/01/04 07:26:53;;;;;;;4.53;1.60;;;;;;;10.30;83.77;101266.44;5134112;27;20200;-68
2023/01/04 07:29:21;;;;;;;1.00;1.00;;;;;;;10.27;84.50;101280.84;5134670;28;20218;-68
2023/01/04 07:31:49;;;;;;;1.27;1.27;;;;;;;10.17;84.86;101275.16;5136289;27;20274;-68
2023/01/04 07:34:18;;;;;;;1.33;1.33;;;;;;;10.15;84.71;101266.38;5138187;27;20257;-68
2023/01/04 07:36:46;;;;;;;1.07;1.07;;;;;;;10.17;84.81;101274.28;5138189;27;20574;-68
2023/01/04 07:39:12;;;;;;;4.77;4.50;;;;;;;10.13;85.12;101273.63;5138226;27;20296;-68
2023/01/04 07:41:40;;;;;;;1.23;1.23;;;;;;;10.14;84.97;101277.16;5138479;27;20615;-68
2023/01/04 07:44:09;;;;;;;1.23;1.23;;;;;;;10.12;85.50;101273.72;5119623;27;20195;-68
2023/01/04 07:46:36;;;;;;;2.30;1.30;;;;;;;10.12;85.83;101279.06;5137792;27;20226;-68
2023/01/04 07:49:03;;;;;;;1.20;1.20;;;;;;;10.05;86.48;101264.34;5137734;27;20280;-68
2023/01/04 07:51:30;;;;;;;1.20;1.20;;;;;;;10.02;86.08;101260.91;5137984;27;20199;-68
2023/01/04 07:53:57;;;;;;;1.20;1.20;;;;;;;10.07;85.99;101241.88;5137713;27;20207;-68
2023/01/04 07:56:23;;;;;;;1.20;1.17;;;;;;;10.06;85.92;101255.38;5137823;27;20200;-68
2023/01/04 07:58:55;;;;;;;1.37;1.37;;;;;;;10.09;85.75;101252.50;5138089;27;20189;-68
2023/01/04 08:01:23;;;;;;;1.33;1.33;;;;;;;10.14;85.54;101245.06;5138391;27;20173;-68
2023/01/04 08:03:50;;;;;;;1.17;1.07;;;;;;;10.23;85.18;101248.03;5138006;27;20238;-68
2023/01/04 08:06:17;;;;;;;1.20;1.20;;;;;;;10.26;84.94;101238.94;5137959;27;20544;-68
2023/01/04 08:08:43;;;;;;;2.77;1.57;;;;;;;10.27;85.27;101232.66;5137886;27;20188;-68
2023/01/04 08:11:13;;;;;;;2.47;1.37;;;;;;;10.30;84.80;101229.78;5138179;27;20561;-68
2023/01/04 08:13:40;;;;;;;1.30;1.30;;;;;;;10.35;84.29;101227.69;5137437;27;20193;-68
2023/01/04 08:16:16;;;;;;;1.20;1.20;;;;;;;10.43;83.97;101232.56;5137840;27;20279;-68
2023/01/04 08:18:43;;;;;;;0.93;0.93;;;;;;;10.43;84.64;101229.88;5137419;27;20627;-68
2023/01/04 08:21:09;;;;;;;1.13;1.13;;;;;;;10.49;83.63;101221.47;5137427;27;20196;-68
2023/01/04 08:23:36;;;;;;;1.07;1.00;;;;;;;10.51;83.91;101238.31;5137419;27;20185;-68
2023/01/04 08:26:03;;;;;;;1.23;1.23;;;;;;;10.61;83.07;101219.81;5137139;27;21526;-68
2023/01/04 08:28:31;;;;;;;1.20;1.20;;;;;;;10.64;82.97;101225.84;5137228;27;20192;-67
2023/01/04 08:30:57;;;;;;;2.77;1.40;;;;;;;10.62;82.97;101227.75;5137198;27;20190;-67
2023/01/04 08:33:24;;;;;;;1.30;1.10;;;;;;;10.63;83.28;101217.88;5118718;27;20203;-67
2023/01/04 08:35:50;;;;;;;1.90;1.13;;;;;;;10.67;82.85;101224.78;5136946;27;20209;-68
2023/01/04 08:38:17;;;;;;;1.77;1.40;;;;;;;10.69;82.12;101220.19;5137350;27;20180;-67
2023/01/04 08:41:04;;;;;;;2.73;1.40;;;;;;;10.70;82.58;101204.97;5137565;27;20219;-67
2023/01/04 08:43:50;;;;;;;1.30;1.30;;;;;;;10.72;82.04;101213.75;5136765;27;20532;-67
2023/01/04 08:46:17;;;;;;;1.10;1.10;;;;;;;10.74;81.51;101203.81;5136805;27;20204;-67
2023/01/04 08:48:43;;;;;;;1.20;1.20;;;;;;;10.76;82.29;101196.53;5118632;27;20594;-67
2023/01/04 08:51:12;;;;;;;1.37;1.30;;;;;;;10.80;82.52;101204.28;5137044;27;20642;-67
2023/01/04 08:53:39;;;;;;;1.30;1.20;;;;;;;10.81;81.96;101210.50;5136924;27;20553;-67
2023/01/04 08:56:06;;;;;;;1.27;1.27;;;;;;;10.86;81.48;101201.19;5136426;27;20212;-68
2023/01/04 08:58:35;;;;;;;1.33;1.10;;;;;;;10.88;81.57;101202.91;5136562;27;20196;-67
2023/01/04 09:01:04;;;;;;;1.50;1.40;;;;;;;10.97;81.07;101203.19;5136528;27;20180;-67
2023/01/04 09:03:31;;;;;;;1.03;1.03;;;;;;;10.94;81.34;101184.63;5136475;27;20188;-68
2023/01/04 09:06:10;;;;;;;1.70;1.00;;;;;;;10.99;81.14;101186.97;5136896;27;20192;-68
2023/01/04 09:08:37;;;;;;;1.20;1.20;;;;;;;10.99;81.53;101189.66;5136947;27;20173;-68
2023/01/04 09:11:09;;;;;;;1.30;1.30;;;;;;;10.97;81.49;101186.25;5136580;27;20176;-68
2023/01/04 09:13:36;;;;;;;1.20;1.20;;;;;;;11.06;81.09;101194.53;5136617;27;20175;-68
2023/01/04 09:16:05;;;;;;;2.10;1.17;;;;;;;11.04;81.71;101185.72;5136510;27;20220;-68
2023/01/04 09:18:33;;;;;;;0.90;0.90;;;;;;;11.06;81.71;101189.16;5136234;27;20552;-68
2023/01/04 09:21:05;;;;;;;1.13;1.13;;;;;;;11.11;81.70;101194.22;5136097;27;20267;-68
2023/01/04 09:23:32;;;;;;;1.50;1.40;;;;;;;11.07;82.12;101181.97;5136473;27;20171;-68
2023/01/04 09:26:08;;;;;;;1.00;1.00;;;;;;;11.03;82.86;101189.34;5136408;27;20264;-68
2023/01/04 09:28:35;;;;;;;1.70;1.70;;;;;;;10.96;83.77;101179.16;5136670;27;20196;-68
2023/01/04 09:31:10;;;;;;;1.10;1.10;;;;;;;10.88;84.51;101192.19;5136034;27;20220;-68
2023/01/04 09:33:37;;;;;;;2.00;1.50;;;;;;;10.87;84.73;101186.00;5136266;27;20184;-68
2023/01/04 09:36:24;;;;;;;1.67;1.57;;;;;;;10.93;84.05;101174.00;5135775;27;20216;-69
2023/01/04 09:38:51;;;;;;;1.77;1.67;;;;;;;10.87;84.63;101188.66;5135872;27;20188;-68
2023/01/04 09:41:29;;;;;;;1.10;1.10;;;;;;;10.89;84.82;101180.50;5135759;27;20180;-68
2023/01/04 09:44:10;;;;;;;1.40;1.40;;;;;;;10.92;84.28;101182.97;5136310;27;20223;-68
2023/01/04 09:46:43;;;;;;;1.23;1.23;;;;;;;10.90;84.75;101168.84;5136066;27;20212;-68
2023/01/04 09:49:15;;;;;;;1.40;1.40;;;;;;;10.91;84.37;101167.88;5136250;27;20256;-68
2023/01/04 09:51:47;;;;;;;2.17;2.07;;;;;;;10.89;85.14;101183.19;5135898;27;20177;-68
2023/01/04 09:54:19;;;;;;;3.30;2.03;;;;;;;10.95;85.54;101182.81;5135077;27;20226;-68
2023/01/04 09:56:52;;;;;;;1.47;1.47;;;;;;;10.88;85.30;101187.69;5135694;27;20716;-68
2023/01/04 09:59:25;;;;;;;1.90;1.90;;;;;;;10.84;86.22;101188.84;5135832;27;20214;-68
2023/01/04 10:01:56;;;;;;;1.87;1.87;;;;;;;10.83;85.86;101195.19;5136043;27;20265;-68
2023/01/04 10:04:46;;;;;;;2.23;2.10;;;;;;;10.88;85.25;101187.69;5135981;27;20222;-69
2023/01/04 10:07:27;;;;;;;1.80;1.80;;;;;;;10.93;85.02;101190.06;5135383;27;20196;-69
2023/01/04 10:09:54;;;;;;;1.63;1.63;;;;;;;10.94;84.95;101195.34;5135318;27;20176;-69
2023/01/04 10:12:51;;;;;;;2.07;1.97;;;;;;;10.96;84.59;101187.19;5135203;27;20180;-69
2023/01/04 10:15:46;;;;;;;1.70;1.70;;;;;;;10.99;84.42;101169.09;5116713;27;20680;-68
2023/01/04 10:18:35;;;;;;;2.27;2.20;;;;;;;11.06;84.13;101177.56;5135465;27;20206;-69
2023/01/04 10:21:41;;;;;;;1.33;1.33;;;;;;;11.08;84.48;101175.66;5135065;27;20551;-68
2023/01/04 10:24:33;;;;;;;1.60;1.60;;;;;;;11.11;84.18;101175.47;5135074;27;20284;-68
2023/01/04 10:27:30;;;;;;;1.50;1.50;;;;;;;11.13;83.79;101180.69;5134925;27;20211;-69
2023/01/04 10:30:20;;;;;;;1.40;1.40;;;;;;;11.14;84.49;101179.75;5135505;27;20263;-69
2023/01/04 10:32:59;;;;;;;2.70;2.00;;;;;;;11.10;84.80;101178.22;5135091;27;20233;-69
2023/01/04 10:35:26;;;;;;;1.63;1.63;;;;;;;11.07;85.28;101173.94;5135059;27;20220;-68
2023/01/04 10:38:03;;;;;;;1.60;1.60;;;;;;;11.02;85.88;101163.53;5135261;27;20208;-69
2023/01/04 10:40:34;;;;;;;2.00;2.00;;;;;;;10.94;86.35;101165.88;5134741;27;20177;-69
2023/01/04 10:43:06;;;;;;;1.90;1.90;;;;;;;10.87;86.82;101153.84;5117103;27;20272;-69
2023/01/04 10:46:01;;;;;;;1.77;1.77;;;;;;;10.87;85.95;101156.53;5135205;27;20160;-69
2023/01/04 10:48:52;;;;;;;1.83;1.83;;;;;;;10.92;86.22;101145.47;5135162;27;20173;-69
2023/01/04 10:51:34;;;;;;;1.77;1.67;;;;;;;10.86;85.95;101144.91;5134513;27;20195;-68
2023/01/04 10:54:12;;;;;;;1.90;1.90;;;;;;;10.94;86.58;101157.81;5134653;27;20252;-68
2023/01/04 10:56:50;;;;;;;1.90;1.80;;;;;;;10.97;86.74;101146.03;5134468;27;20223;-68
2023/01/04 10:59:22;;;;;;;3.00;2.13;;;;;;;10.96;86.25;101147.84;5135068;27;20176;-69
2023/01/04 11:02:05;;;;;;;1.90;1.90;;;;;;;10.96;86.50;101141.63;5134725;27;20222;-69
2023/01/04 11:04:42;;;;;;;2.37;1.40;;;;;;;10.99;86.68;101133.38;5134475;27;20204;-68
2023/01/04 11:07:17;;;;;;;2.27;1.83;;;;;;;10.98;86.52;101124.47;5134227;27;20203;-69
2023/01/04 11:10:01;;;;;;;1.67;1.67;;;;;;;11.03;86.84;101133.06;5134378;27;20177;-69
2023/01/04 11:12:28;;;;;;;1.90;1.90;;;;;;;11.11;85.67;101131.69;5134557;28;20637;-69
2023/01/04 11:14:54;;;;;;;2.00;2.00;;;;;;;11.09;85.89;101114.88;5134765;28;20211;-68
2023/01/04 11:17:23;;;;;;;2.13;2.13;;;;;;;11.14;85.42;101115.41;5134331;27;20201;-69
2023/01/04 11:19:49;;;;;;;2.33;2.33;;;;;;;11.14;85.77;101108.22;5134479;28;20524;-68
2023/01/04 11:22:23;;;;;;;2.37;2.20;;;;;;;11.18;85.90;101107.06;5133980;28;20199;-68
2023/01/04 11:24:55;;;;;;;4.00;2.60;;;;;;;11.22;85.45;101103.19;5134513;28;20607;-69
2023/01/04 11:28:05;;;;;;;2.97;2.20;;;;;;;11.15;86.17;101101.03;5133915;27;20273;-68
2023/01/04 11:31:00;;;;;;;3.60;2.33;;;;;;;11.13;85.78;101103.81;5130846;28;20188;-69
2023/01/04 11:33:26;;;;;;;3.07;3.07;;;;;;;11.22;86.37;101089.78;5061725;28;20256;-69
2023/01/04 11:35:57;;;;;;;2.30;2.20;;;;;;;11.25;85.64;101088.72;5092873;28;20212;-69
2023/01/04 11:38:26;;;;;;;3.57;2.00;;;;;;;11.22;85.78;101092.47;5093143;28;20186;-69
2023/01/04 11:40:56;;;;;;;2.40;2.40;;;;;;;11.26;85.22;101090.44;5093343;28;20303;-69
2023/01/04 11:43:24;;;;;;;2.27;2.17;;;;;;;11.29;85.96;101104.50;5093029;28;20269;-69
2023/01/04 11:46:01;;;;;;;2.50;2.40;;;;;;;11.24;86.04;101078.97;5093656;28;20182;-69
2023/01/04 11:48:33;;;;;;;2.63;2.63;;;;;;;11.24;87.30;101084.31;5093333;28;20550;-69
2023/01/04 11:50:59;;;;;;;1.90;1.90;;;;;;;11.13;87.17;101086.88;5093301;28;20186;-69
2023/01/04 11:53:30;;;;;;;2.47;2.47;;;;;;;11.15;86.93;101083.13;5092985;28;20186;-68
2023/01/04 11:56:23;;;;;;;2.40;2.40;;;;;;;11.20;86.49;101077.44;5092807;28;20214;-69
2023/01/04 11:59:12;;;;;;;2.70;2.60;;;;;;;11.27;87.02;101081.44;5091109;28;20247;-69
2023/01/04 12:01:42;;;;;;;3.20;3.00;;;;;;;11.27;86.70;101084.09;5093282;28;20235;-69
2023/01/04 12:04:12;;;;;;;3.03;2.93;;;;;;;11.28;86.73;101067.06;5092967;28;20194;-69
2023/01/04 12:06:41;;;;;;;2.97;2.93;;;;;;;11.28;87.32;101067.06;5093201;28;20547;-69
2023/01/04 12:09:14;;;;;;;4.53;4.00;;;;;;;11.27;87.41;101068.03;5092897;28;20193;-69
2023/01/04 12:11:49;;;;;;;3.30;3.30;;;;;;;11.23;87.30;101086.16;5092775;28;20715;-69
2023/01/04 12:14:20;;;;;;;3.33;3.27;;;;;;;11.27;87.57;101073.38;5075157;28;20170;-69
2023/01/04 12:16:59;;;;;;;3.53;3.30;;;;;;;11.27;87.95;101068.88;5092819;28;20300;-69
2023/01/04 12:19:26;;;;;;;3.60;3.50;;;;;;;11.23;88.23;101069.22;5096440;28;20601;-69
2023/01/04 12:22:01;;;;;;;3.43;3.43;;;;;;;11.24;88.95;101062.88;5096323;28;20201;-69
2023/01/04 12:24:31;;;;;;;3.50;3.40;;;;;;;11.19;89.60;101078.44;5096703;28;20260;-69
2023/01/04 12:27:00;;;;;;;3.07;3.07;;;;;;;11.19;88.71;101075.75;5096516;28;20285;-69
2023/01/04 12:29:44;;;;;;;3.67;3.57;;;;;;;11.22;89.51;101076.38;5096357;28;20197;-69
2023/01/04 12:32:10;;;;;;;3.63;3.63;;;;;;;11.19;89.99;101070.38;5078463;28;20609;-69